Time;durP1;ratioP1;P1;durP2;ratioP2;P2;SDS_P1;SDS_P2;PMS_P1;PMS_P2;Temp;Humidity;BMP_temperature;BMP_pressure;BME280_temperature;BME280_humidity;BME280_pressure;Samples;Min_cycle;Max_cycle;Signal;HPM_P1;HPM_P2
2022/04/17 00:00:56;;;;;;;6.03;2.97;;;1.80;22.10;2.50;95077.00;;;;7394802;19;20159;-71
2022/04/17 00:03:31;;;;;;;3.97;3.23;;;1.80;10.80;2.40;95107.00;;;;7396758;19;20136;-71
2022/04/17 00:05:58;;;;;;;8.37;3.37;;;1.80;22.90;2.20;95115.00;;;;7396540;19;20220;-71
2022/04/17 00:08:27;;;;;;;3.63;2.90;;;1.80;26.20;2.20;95100.00;;;;7397805;19;20164;-71
2022/04/17 00:11:01;;;;;;;4.47;2.80;;;1.70;39.40;2.20;95102.00;;;;7394317;19;20148;-71
2022/04/17 00:13:35;;;;;;;5.00;3.00;;;1.70;63.80;2.20;95076.00;;;;7392968;19;20623;-71
2022/04/17 00:16:08;;;;;;;5.43;3.30;;;1.60;76.20;2.30;95110.00;;;;7398582;19;20636;-71
2022/04/17 00:18:36;;;;;;;4.77;3.13;;;1.60;73.70;2.30;95053.00;;;;7394413;19;20146;-71
2022/04/17 00:21:04;;;;;;;4.87;3.20;;;1.70;45.00;2.20;95079.00;;;;7396309;19;20133;-73
2022/04/17 00:23:38;;;;;;;4.50;2.90;;;1.60;69.10;2.10;95088.00;;;;7395491;19;20140;-71
2022/04/17 00:26:05;;;;;;;4.93;3.10;;;1.60;96.10;2.00;95092.00;;;;7393916;19;20133;-72
2022/04/17 00:28:32;;;;;;;4.13;2.80;;;1.50;99.90;2.00;95072.00;;;;7393165;19;20149;-71
2022/04/17 00:31:06;;;;;;;5.33;3.07;;;1.50;99.90;2.00;95045.00;;;;7398244;19;20165;-71
2022/04/17 00:33:33;;;;;;;5.77;3.40;;;1.40;99.90;2.00;95093.00;;;;7396228;19;20722;-71
2022/04/17 00:36:00;;;;;;;3.13;2.60;;;1.40;99.90;1.90;95066.00;;;;7393850;19;20152;-72
2022/04/17 00:38:34;;;;;;;4.13;3.10;;;1.30;99.90;2.00;95067.00;;;;7394691;19;20144;-72
2022/04/17 00:41:01;;;;;;;6.17;2.90;;;1.40;99.90;1.90;95063.00;;;;7394484;19;20137;-72
2022/04/17 00:43:33;;;;;;;4.60;3.13;;;1.40;99.90;1.90;95035.00;;;;7397409;19;20167;-71
2022/04/17 00:46:06;;;;;;;4.93;3.20;;;1.30;99.90;1.90;95039.00;;;;7393496;19;20161;-71
2022/04/17 00:48:33;;;;;;;3.67;3.23;;;1.30;99.90;1.90;95049.00;;;;7399492;19;20635;-71
2022/04/17 00:51:00;;;;;;;4.90;3.33;;;1.20;99.90;1.70;95064.00;;;;7396873;19;20148;-70
2022/04/17 00:53:36;;;;;;;5.30;3.17;;;1.20;99.90;1.80;95073.00;;;;7393549;19;21028;-71
2022/04/17 00:56:03;;;;;;;3.40;3.10;;;1.20;99.90;1.70;95087.00;;;;7393342;19;20213;-72
2022/04/17 00:58:34;;;;;;;3.87;3.20;;;1.10;99.90;1.70;95053.00;;;;7394741;19;20638;-71
2022/04/17 01:01:08;;;;;;;4.70;3.23;;;1.10;99.90;1.70;95065.00;;;;7396984;19;20133;-75
2022/04/17 01:03:35;;;;;;;4.83;2.73;;;1.00;99.90;1.80;95064.00;;;;7398686;19;20597;-75
2022/04/17 01:06:02;;;;;;;5.63;2.87;;;1.10;99.90;1.60;95035.00;;;;7394781;19;20172;-74
2022/04/17 01:08:41;;;;;;;3.40;2.80;;;1.00;99.90;1.60;95032.00;;;;7393579;19;20211;-74
2022/04/17 01:11:10;;;;;;;5.50;3.20;;;1.00;99.90;1.60;95061.00;;;;7395407;19;20173;-75
2022/04/17 01:13:50;;;;;;;4.17;2.90;;;1.00;99.90;1.50;95062.00;;;;7395377;19;20171;-75
2022/04/17 01:16:18;;;;;;;4.33;2.63;;;1.00;99.90;1.50;95056.00;;;;7390530;19;20132;-74
2022/04/17 01:18:57;;;;;;;4.40;3.50;;;0.90;99.90;1.50;95041.00;;;;7397882;19;20165;-75
2022/04/17 01:21:25;;;;;;;4.67;3.00;;;0.90;99.90;1.60;95043.00;;;;7394823;19;20148;-75
2022/04/17 01:26:56;;;;;;;7.93;3.30;;;0.90;99.90;1.40;95048.00;;;;7396095;19;20605;-75
2022/04/17 01:29:36;;;;;;;4.30;3.27;;;0.80;99.90;1.40;95038.00;;;;7396835;19;20204;-75
2022/04/17 01:32:11;;;;;;;5.80;3.40;;;0.70;99.90;1.40;95048.00;;;;7396382;19;20632;-75
2022/04/17 01:34:38;;;;;;;4.43;3.40;;;0.70;99.90;1.40;95030.00;;;;7395226;19;20576;-75
2022/04/17 01:37:06;;;;;;;5.23;3.50;;;0.80;99.90;1.40;95027.00;;;;7394602;19;20121;-75
2022/04/17 01:39:39;;;;;;;7.30;3.13;;;0.80;99.90;1.40;94999.00;;;;7391776;19;20137;-75
2022/04/17 01:42:06;;;;;;;4.13;3.37;;;0.80;99.90;1.50;95006.00;;;;7396145;19;20220;-75
2022/04/17 01:44:34;;;;;;;4.60;3.20;;;0.80;99.90;1.30;95008.00;;;;7394407;19;20153;-76
2022/04/17 01:47:08;;;;;;;4.40;3.50;;;0.80;99.90;1.40;95039.00;;;;7396125;19;20152;-75
2022/04/17 01:49:36;;;;;;;4.50;3.00;;;0.70;99.90;1.30;95013.00;;;;7392274;19;20121;-75
2022/04/17 01:52:04;;;;;;;5.07;3.73;;;0.70;99.90;1.30;94995.00;;;;7394795;19;20157;-75
2022/04/17 01:54:37;;;;;;;4.13;3.27;;;0.70;99.90;1.20;94985.00;;;;7391276;19;20131;-75
2022/04/17 01:57:05;;;;;;;3.83;3.40;;;0.60;99.90;1.20;95001.00;;;;7395074;19;20146;-75
2022/04/17 01:59:32;;;;;;;4.10;3.53;;;0.60;99.90;1.20;95003.00;;;;7392747;19;20664;-75
2022/04/17 02:02:05;;;;;;;4.80;3.60;;;0.60;99.90;1.10;95025.00;;;;7393295;19;20125;-75
2022/04/17 02:04:35;;;;;;;5.27;3.80;;;0.50;99.90;1.10;95000.00;;;;7391854;19;20208;-75
2022/04/17 02:07:05;;;;;;;5.23;3.90;;;0.40;99.90;1.10;94976.00;;;;7386927;19;20140;-74
2022/04/17 02:09:38;;;;;;;4.70;3.47;;;0.40;99.90;1.10;95010.00;;;;7396526;19;20216;-75
2022/04/17 02:12:18;;;;;;;5.93;3.63;;;0.50;99.90;1.30;95013.00;;;;7393238;19;20591;-75
2022/04/17 02:14:52;;;;;;;5.97;3.87;;;0.50;99.90;1.10;95009.00;;;;7391322;19;20144;-75
2022/04/17 02:17:19;;;;;;;8.33;4.07;;;0.50;99.90;1.00;94978.00;;;;7394853;19;20138;-75
2022/04/17 02:19:46;;;;;;;5.57;4.30;;;0.40;99.90;1.00;94989.00;;;;7393535;19;20125;-75
2022/04/17 02:22:20;;;;;;;4.70;4.00;;;0.40;99.90;1.00;94992.00;;;;7393703;19;20129;-74
2022/04/17 02:24:50;;;;;;;7.77;4.03;;;0.40;99.90;1.00;94993.00;;;;7395363;19;20160;-75
2022/04/17 02:27:17;;;;;;;6.03;3.80;;;0.40;99.90;1.00;94989.00;;;;7399786;19;20125;-74
2022/04/17 02:29:51;;;;;;;8.70;4.00;;;0.40;99.90;0.90;94961.00;;;;7399500;19;20125;-75
2022/04/17 02:32:18;;;;;;;8.17;4.43;;;0.30;99.90;1.00;94981.00;;;;7401304;19;20164;-74
2022/04/17 02:34:45;;;;;;;8.30;4.07;;;0.30;99.90;0.90;94966.00;;;;7400676;19;20143;-74
2022/04/17 02:37:21;;;;;;;5.40;4.17;;;0.30;99.90;0.90;94981.00;;;;7401973;19;20137;-75
2022/04/17 02:39:48;;;;;;;5.37;3.97;;;0.20;99.90;0.90;94978.00;;;;7402017;19;20149;-75
2022/04/17 02:42:15;;;;;;;5.23;4.07;;;0.20;99.90;0.90;94990.00;;;;7402350;19;20592;-74
2022/04/17 02:44:49;;;;;;;5.73;3.83;;;0.20;99.90;0.90;94947.00;;;;7399975;19;20512;-75
2022/04/17 02:50:14;;;;;;;4.83;3.73;;;0.20;99.90;0.80;94953.00;;;;7400860;19;20592;-74
2022/04/17 02:52:42;;;;;;;7.13;4.20;;;0.10;99.90;0.70;94979.00;;;;7400191;19;20153;-75
2022/04/17 02:55:15;;;;;;;7.87;4.67;;;0.10;99.90;0.80;94965.00;;;;7399114;19;20157;-74
2022/04/17 02:57:43;;;;;;;5.83;3.93;;;0.10;1.00;0.60;94962.00;;;;7401174;19;20626;-74
2022/04/17 03:00:11;;;;;;;6.27;3.87;;;0.00;1.00;0.50;94945.00;;;;7397508;19;20174;-74
2022/04/17 03:08:16;;;;;;;5.10;4.00;;;0.00;1.00;0.70;94962.00;;;;7398528;19;20462;-75
2022/04/17 03:10:48;;;;;;;4.70;3.97;;;0.00;1.00;0.70;94967.00;;;;7397855;19;20176;-75
2022/04/17 03:13:29;;;;;;;5.80;4.20;;;0.00;99.90;0.60;94953.00;;;;7399993;19;20643;-75
2022/04/17 03:15:56;;;;;;;6.60;4.23;;;0.00;1.00;0.50;94969.00;;;;7399689;19;20471;-75
2022/04/17 03:18:30;;;;;;;6.73;4.23;;;-0.10;1.00;0.50;94978.00;;;;7402239;19;20137;-74
2022/04/17 03:20:58;;;;;;;5.43;4.40;;;-0.10;1.00;0.30;94959.00;;;;7399001;19;20105;-74
2022/04/17 03:23:26;;;;;;;7.37;4.37;;;-0.20;1.00;0.20;94978.00;;;;7401935;19;20268;-75
2022/04/17 03:26:00;;;;;;;5.80;4.50;;;-0.30;1.00;0.00;94982.00;;;;7399155;19;20156;-74
2022/04/17 03:28:27;;;;;;;6.90;4.80;;;-0.40;1.00;0.10;94975.00;;;;7400762;19;20640;-74
2022/04/17 03:30:54;;;;;;;6.00;4.33;;;-0.50;1.00;0.20;94962.00;;;;7403341;19;20121;-75
2022/04/17 03:33:28;;;;;;;4.93;4.30;;;-0.50;1.00;0.20;94947.00;;;;7401203;19;20129;-75
2022/04/17 03:35:56;;;;;;;5.73;4.27;;;-0.50;1.00;0.10;94971.00;;;;7396309;19;20140;-75
2022/04/17 03:38:24;;;;;;;5.87;4.30;;;-0.50;1.00;0.00;94932.00;;;;7401669;19;20152;-75
2022/04/17 03:40:59;;;;;;;5.83;4.90;;;-0.60;1.00;0.00;94926.00;;;;7403124;19;20184;-75
2022/04/17 03:43:26;;;;;;;5.27;4.13;;;-0.60;1.00;-0.20;94923.00;;;;7399398;19;20144;-75
2022/04/17 03:45:53;;;;;;;7.20;4.77;;;-0.80;1.00;-0.20;94918.00;;;;7403942;19;20137;-75
2022/04/17 03:48:27;;;;;;;6.47;4.67;;;-0.80;1.00;-0.20;94966.00;;;;7404376;19;20569;-75
2022/04/17 03:50:54;;;;;;;6.30;4.53;;;-0.90;1.00;-0.20;94937.00;;;;7402586;19;20125;-73
2022/04/17 03:53:21;;;;;;;5.57;4.60;;;-0.90;1.00;-0.40;94951.00;;;;7402153;19;20149;-75
2022/04/17 03:55:55;;;;;;;5.00;4.33;;;-1.00;1.00;-0.50;94934.00;;;;7400627;19;20640;-75
2022/04/17 03:58:22;;;;;;;5.77;4.70;;;-1.10;1.00;-0.50;94925.00;;;;7402869;19;20155;-75
2022/04/17 04:00:50;;;;;;;8.23;5.13;;;-1.20;13.60;-0.60;94917.00;;;;7398908;19;20128;-74
2022/04/17 04:03:24;;;;;;;5.67;4.50;;;-1.20;40.50;-0.70;94928.00;;;;7395593;19;20172;-75
2022/04/17 04:05:52;;;;;;;6.90;4.60;;;-1.30;55.50;-0.70;94933.00;;;;7399515;19;20273;-74
2022/04/17 04:08:19;;;;;;;9.20;4.90;;;-1.30;99.90;-0.70;94922.00;;;;7400230;19;20527;-75
2022/04/17 04:10:53;;;;;;;7.50;5.00;;;-1.40;99.90;-0.70;94959.00;;;;7396268;19;20604;-75
2022/04/17 04:13:27;;;;;;;5.93;4.90;;;-1.30;99.90;-0.70;94934.00;;;;7390135;19;20580;-74
2022/04/17 04:16:02;;;;;;;8.33;4.90;;;-1.40;99.90;-0.70;94948.00;;;;7397407;19;20133;-75
2022/04/17 04:18:29;;;;;;;6.43;4.90;;;-1.50;99.90;-0.80;94942.00;;;;7399315;19;20152;-75
2022/04/17 04:20:56;;;;;;;7.63;4.60;;;-1.50;99.90;-0.60;94920.00;;;;7398151;19;20212;-75
2022/04/17 04:23:35;;;;;;;8.10;5.00;;;-1.50;99.90;-0.70;94934.00;;;;7394326;19;20151;-75
2022/04/17 04:26:03;;;;;;;7.37;5.67;;;-1.40;99.90;-0.70;94962.00;;;;7397951;19;20171;-75
2022/04/17 04:28:37;;;;;;;9.23;5.60;;;-1.40;99.90;-0.60;94967.00;;;;7398899;19;20131;-74
2022/04/17 04:31:14;;;;;;;6.20;4.90;;;-1.50;99.90;-0.60;94963.00;;;;7397376;19;20147;-74
2022/04/17 04:33:48;;;;;;;7.00;5.50;;;-1.40;99.90;-0.40;94927.00;;;;7393934;19;20199;-74
2022/04/17 04:36:15;;;;;;;8.57;5.20;;;-1.30;99.90;-0.50;94952.00;;;;7397099;19;20169;-74
2022/04/17 04:38:43;;;;;;;6.60;4.70;;;-1.30;99.90;-0.50;94918.00;;;;7395607;19;20155;-74
2022/04/17 04:41:16;;;;;;;5.30;4.80;;;-1.30;99.90;-0.50;94947.00;;;;7395497;19;20136;-74
2022/04/17 04:43:43;;;;;;;7.60;5.20;;;-1.30;99.90;-0.50;94959.00;;;;7394640;19;20129;-75
2022/04/17 04:46:10;;;;;;;6.10;4.80;;;-1.30;99.90;-0.50;94917.00;;;;7397625;19;20125;-75
2022/04/17 04:51:40;;;;;;;6.33;4.80;;;-1.20;99.90;-0.30;94907.00;;;;7394069;19;20135;-74
2022/04/17 04:54:14;;;;;;;11.70;5.23;;;-1.20;99.90;-0.30;94940.00;;;;7400154;19;20152;-74
2022/04/17 04:56:41;;;;;;;8.13;5.33;;;-1.10;99.90;-0.20;94889.00;;;;7394405;19;20133;-74
2022/04/17 04:59:09;;;;;;;8.60;5.10;;;-1.10;99.90;0.00;94953.00;;;;7395186;19;20588;-75
2022/04/17 05:01:42;;;;;;;16.77;9.57;;;-1.00;99.90;0.30;94924.00;;;;7386169;19;20596;-75
2022/04/17 05:04:15;;;;;;;9.83;7.00;;;-0.70;99.90;0.30;94948.00;;;;7397773;19;20601;-75
2022/04/17 05:06:49;;;;;;;7.50;5.33;;;-0.60;55.50;0.40;94954.00;;;;7396994;19;20482;-75
2022/04/17 05:09:16;;;;;;;6.87;5.53;;;-0.50;14.40;0.50;94922.00;;;;7395806;19;20175;-75
2022/04/17 05:11:44;;;;;;;6.03;4.80;;;-0.40;1.00;0.60;94954.00;;;;7396115;19;20138;-74
2022/04/17 05:14:24;;;;;;;6.00;4.77;;;-0.30;1.00;0.70;94939.00;;;;7395064;19;20152;-74
2022/04/17 05:16:51;;;;;;;5.23;4.67;;;-0.20;1.00;0.80;94946.00;;;;7394371;19;20608;-75
2022/04/17 05:19:27;;;;;;;6.40;4.80;;;-0.10;1.00;1.00;94942.00;;;;7395900;19;20591;-74
2022/04/17 05:21:59;;;;;;;5.80;4.60;;;0.00;1.00;1.20;94956.00;;;;7396164;19;20128;-74
2022/04/17 05:24:32;;;;;;;6.23;4.60;;;0.20;1.00;1.30;94914.00;;;;7397100;19;20124;-74
2022/04/17 05:27:00;;;;;;;5.57;4.77;;;0.30;1.00;1.50;94958.00;;;;7396198;19;20224;-75
2022/04/17 05:29:27;;;;;;;5.53;4.40;;;0.50;1.00;1.60;94961.00;;;;7396122;19;20145;-75
2022/04/17 05:32:01;;;;;;;6.60;4.30;;;0.60;1.00;1.70;94949.00;;;;7393392;19;20168;-75
2022/04/17 05:34:29;;;;;;;7.03;4.70;;;0.70;1.00;1.90;94956.00;;;;7397868;19;20591;-75
2022/04/17 05:36:56;;;;;;;6.03;4.50;;;0.90;99.90;2.10;94959.00;;;;7397307;19;20157;-75
2022/04/17 05:39:32;;;;;;;5.27;4.00;;;1.00;99.90;2.20;94967.00;;;;7400673;19;20596;-75
2022/04/17 05:42:00;;;;;;;5.27;4.37;;;1.20;99.90;2.30;94934.00;;;;7397252;19;20476;-75
2022/04/17 05:44:28;;;;;;;5.30;3.73;;;1.40;99.90;2.50;94948.00;;;;7399205;19;20926;-75
2022/04/17 05:47:03;;;;;;;4.70;3.83;;;1.50;99.90;2.70;94942.00;;;;7401387;19;20160;-75
2022/04/17 05:49:31;;;;;;;5.47;4.07;;;1.70;99.90;2.90;94958.00;;;;7398101;19;20176;-75
2022/04/17 05:51:59;;;;;;;5.07;3.67;;;1.90;99.90;3.00;94966.00;;;;7394760;19;20177;-76
2022/04/17 05:54:33;;;;;;;5.03;3.87;;;2.00;99.90;3.10;94971.00;;;;7397027;19;20153;-75
2022/04/17 05:57:01;;;;;;;5.17;4.03;;;2.10;99.90;3.20;94974.00;;;;7397146;19;20158;-76
2022/04/17 05:59:29;;;;;;;6.33;3.80;;;2.30;99.90;3.40;94961.00;;;;7397882;19;20480;-75
2022/04/17 06:02:04;;;;;;;5.77;3.43;;;2.40;28.30;3.60;94979.00;;;;7393965;19;20155;-75
2022/04/17 06:04:37;;;;;;;4.37;3.17;;;2.60;41.50;3.80;94977.00;;;;7398716;19;20602;-76
2022/04/17 06:07:11;;;;;;;4.50;3.50;;;2.70;99.80;4.00;94981.00;;;;7398460;19;20152;-76
2022/04/17 06:09:39;;;;;;;4.03;3.60;;;2.90;20.90;4.10;94989.00;;;;7397195;19;20176;-76
2022/04/17 06:12:22;;;;;;;4.07;3.27;;;3.00;28.40;4.10;94983.00;;;;7396773;19;20167;-75
2022/04/17 06:15:05;;;;;;;4.23;3.40;;;3.10;1.00;4.30;94985.00;;;;7398460;19;20504;-76
2022/04/17 06:17:41;;;;;;;4.60;3.50;;;3.20;1.00;4.40;94966.00;;;;7398290;19;20154;-75
2022/04/17 06:20:16;;;;;;;3.90;3.17;;;3.40;1.00;4.60;94972.00;;;;7398270;19;20124;-75
2022/04/17 06:22:43;;;;;;;5.57;3.50;;;3.50;1.00;4.80;94955.00;;;;7398056;19;20152;-76
2022/04/17 06:25:14;;;;;;;4.07;3.20;;;3.60;1.00;5.10;94951.00;;;;7396554;19;20139;-76
2022/04/17 06:27:48;;;;;;;5.90;3.40;;;3.80;1.00;5.70;94933.00;;;;7399067;19;20220;-75
2022/04/17 06:30:19;;;;;;;5.33;3.40;;;4.00;1.00;5.90;94969.00;;;;7397311;19;20145;-73
2022/04/17 06:32:48;;;;;;;3.50;3.00;;;4.20;1.00;6.20;94954.00;;;;7397459;19;20157;-75
2022/04/17 06:35:22;;;;;;;11.23;3.40;;;4.30;1.00;6.50;94959.00;;;;7397534;19;20132;-76
2022/04/17 06:38:01;;;;;;;6.23;3.23;;;4.50;1.00;6.50;94973.00;;;;7392809;19;20137;-75
2022/04/17 06:40:36;;;;;;;4.93;3.33;;;4.80;1.00;6.70;94954.00;;;;7396833;19;20139;-74
2022/04/17 06:43:09;;;;;;;4.27;2.80;;;4.80;1.00;7.20;94961.00;;;;7398744;19;20145;-74
2022/04/17 06:45:43;;;;;;;4.77;3.57;;;5.10;1.00;7.30;94955.00;;;;7397131;19;20631;-74
2022/04/17 06:48:22;;;;;;;3.87;2.83;;;5.20;1.00;7.60;94929.00;;;;7395361;19;20486;-75
2022/04/17 06:50:57;;;;;;;3.50;2.93;;;5.30;1.00;7.90;94965.00;;;;7395697;19;20167;-74
2022/04/17 06:53:25;;;;;;;3.23;2.93;;;5.50;1.00;8.00;94961.00;;;;7397868;19;20124;-74
2022/04/17 06:55:52;;;;;;;4.37;3.10;;;5.60;1.00;7.90;94934.00;;;;7395741;19;20144;-74
2022/04/17 06:58:30;;;;;;;6.43;3.23;;;5.70;1.00;8.30;94935.00;;;;7395046;19;20163;-74
2022/04/17 07:00:57;;;;;;;3.10;2.77;;;6.00;1.00;8.30;94937.00;;;;7396530;19;20153;-72
2022/04/17 07:03:28;;;;;;;3.33;3.03;;;6.00;1.00;8.20;94919.00;;;;7395612;19;20138;-75
2022/04/17 07:06:05;;;;;;;3.90;3.20;;;5.90;1.00;8.00;94955.00;;;;7398030;19;20457;-74
2022/04/17 07:08:33;;;;;;;3.10;2.80;;;6.00;1.00;8.30;94939.00;;;;7396173;19;20625;-74
2022/04/17 07:11:01;;;;;;;5.20;3.07;;;6.10;1.00;8.70;94912.00;;;;7390505;19;20144;-74
2022/04/17 07:13:42;;;;;;;4.43;3.10;;;6.10;1.00;8.80;94940.00;;;;7398010;19;20172;-74
2022/04/17 07:16:16;;;;;;;3.23;2.73;;;6.20;1.00;8.90;94927.00;;;;7400799;19;20140;-74
2022/04/17 07:18:50;;;;;;;5.30;3.20;;;6.40;1.00;9.40;94949.00;;;;7402229;19;20239;-74
2022/04/17 07:21:18;;;;;;;3.63;3.10;;;6.50;1.00;9.50;94933.00;;;;7402882;19;20490;-75
2022/04/17 07:23:47;;;;;;;3.93;2.73;;;6.70;1.00;9.70;94935.00;;;;7402967;19;20165;-74
2022/04/17 07:26:23;;;;;;;4.17;3.17;;;;;9.80;94933.00;;;;7401557;19;20164;-75
2022/04/17 07:28:51;;;;;;;3.37;3.03;;;;;10.20;94934.00;;;;7404742;19;20129;-74
2022/04/17 07:31:22;;;;;;;3.67;2.97;;;;;10.10;94930.00;;;;7403803;19;20137;-75
2022/04/17 07:33:58;;;;;;;2.90;2.60;;;;;10.10;94921.00;;;;7404425;19;20597;-75
2022/04/17 07:36:27;;;;;;;3.73;3.07;;;;;10.20;94930.00;;;;7400155;19;20159;-75
2022/04/17 07:38:55;;;;;;;3.80;3.10;;;;;10.20;94933.00;;;;7400415;19;20141;-76
2022/04/17 07:41:30;;;;;;;3.00;2.70;;;;;9.90;94936.00;;;;7399763;19;20152;-73
2022/04/17 07:43:58;;;;;;;4.67;2.90;;;;;9.80;94925.00;;;;7400697;19;20160;-75
2022/04/17 07:46:26;;;;;;;3.17;2.73;;;;;10.10;94923.00;;;;7398187;19;20133;-75
2022/04/17 07:49:00;;;;;;;4.97;2.65;;;;;10.00;94927.00;;;;7402780;19;20470;-75
2022/04/17 07:51:28;;;;;;;3.97;2.63;;;;;10.30;94929.00;;;;7400787;19;20148;-74
2022/04/17 07:53:56;;;;;;;5.00;2.55;;;;;9.90;94927.00;;;;7400570;19;20171;-74
2022/04/17 07:56:31;;;;;;;4.13;2.40;;;;;10.30;94914.00;;;;7401057;19;20177;-74
2022/04/17 07:58:59;;;;;;;3.08;2.40;;;;;10.50;94920.00;;;;7400799;19;20481;-75
2022/04/17 08:01:31;;;;;;;3.53;2.53;;;;;11.00;94919.00;;;;7400512;19;20156;-75
2022/04/17 08:04:05;;;;;;;4.53;2.25;;;;;11.00;94924.00;;;;7399927;19;20144;-74
2022/04/17 08:06:37;;;;;;;3.75;2.30;;;;;11.10;94918.00;;;;7400577;19;20507;-73
2022/04/17 08:09:05;;;;;;;2.20;2.00;;;;;11.70;94911.00;;;;7399508;19;20167;-72
2022/04/17 08:11:39;;;;;;;2.65;2.20;;;;;12.00;94911.00;;;;7400412;19;20629;-72
2022/04/17 08:14:13;;;;;;;3.00;2.20;;;;;11.60;94909.00;;;;7396451;19;20232;-74
2022/04/17 08:16:55;;;;;;;2.78;2.05;;;;;11.60;94902.00;;;;7400576;19;20164;-75
2022/04/17 08:19:24;;;;;;;2.75;2.20;;;;;12.00;94907.00;;;;7401712;19;20208;-74
2022/04/17 08:21:59;;;;;;;2.83;2.22;;;;;12.50;94906.00;;;;7397636;19;20671;-75
2022/04/17 08:24:30;;;;;;;2.10;1.88;;;;;12.90;94896.00;;;;7394559;19;20611;-76
2022/04/17 08:26:59;;;;;;;4.57;2.10;;;;;12.40;94898.00;;;;7397431;19;20576;-76
2022/04/17 08:29:33;;;;;;;3.50;2.22;;;;;13.20;94891.00;;;;7399964;19;20136;-77
2022/04/17 08:32:01;;;;;;;1.95;1.80;;;;;12.90;94896.00;;;;7398919;19;20149;-75
2022/04/17 08:34:30;;;;;;;2.35;1.85;;;;;13.50;94887.00;;;;7398471;19;20160;-75
2022/04/17 08:37:04;;;;;;;1.92;1.70;;;;;13.10;94891.00;;;;7398618;19;20148;-77
2022/04/17 08:39:32;;;;;;;5.13;2.05;;;;;13.80;94894.00;;;;7403877;19;20133;-76
2022/04/17 08:42:01;;;;;;;5.65;2.00;;;;;13.70;94895.00;;;;7399514;19;20152;-76
2022/04/17 08:44:40;;;;;;;3.08;1.80;;;;;13.60;94897.00;;;;7400634;19;20156;-75
2022/04/17 08:47:08;;;;;;;3.58;2.00;;;;;14.00;94898.00;;;;7399618;19;20158;-76
2022/04/17 08:49:43;;;;;;;3.83;1.98;;;;;13.80;94900.00;;;;7401433;19;20152;-74
2022/04/17 08:52:15;;;;;;;3.15;1.85;;;;;14.30;94907.00;;;;7400417;19;20132;-75
2022/04/17 08:54:45;;;;;;;3.30;2.05;;;;;14.60;94897.00;;;;7397787;19;20591;-74
2022/04/17 08:57:21;;;;;;;1.77;1.60;;;;;15.50;94892.00;;;;7397693;19;20156;-74
2022/04/17 08:59:50;;;;;;;2.10;1.90;;;;;15.90;94888.00;;;;7399828;19;20161;-76
2022/04/17 09:02:18;;;;;;;2.65;1.92;;;;;15.80;94883.00;;;;7398588;19;20152;-76
2022/04/17 09:04:53;;;;;;;3.50;1.80;;;;;15.50;94887.00;;;;7397713;19;20199;-76
2022/04/17 09:07:21;;;;;;;2.67;1.88;;;;;16.00;94881.00;;;;7398163;19;20152;-74
2022/04/17 09:09:51;;;;;;;1.98;1.67;;;;;16.00;94881.00;;;;7396211;19;20176;-75
2022/04/17 09:12:33;;;;;;;3.92;1.60;;;;;16.30;94871.00;;;;7399646;19;20542;-74
2022/04/17 09:15:09;;;;;;;2.10;1.80;;;;;15.60;94876.00;;;;7395250;19;20175;-74
2022/04/17 09:17:43;;;;;;;3.72;1.88;;;;;16.10;94863.00;;;;7397373;19;20124;-76
2022/04/17 09:20:19;;;;;;;2.35;1.60;;;;;15.30;94866.00;;;;7399012;19;20145;-75
2022/04/17 09:22:57;;;;;;;3.85;1.98;;;;;16.00;94864.00;;;;7398152;19;20200;-74
2022/04/17 09:25:26;;;;;;;3.45;1.98;;;;;15.30;94852.00;;;;7398605;19;20161;-75
2022/04/17 09:28:03;;;;;;;1.90;1.42;;;;;15.70;94858.00;;;;7399729;19;20497;-75
2022/04/17 09:30:32;;;;;;;2.13;1.50;;;;;15.60;94855.00;;;;7398230;19;20140;-75
2022/04/17 09:33:05;;;;;;;5.65;1.58;;;;;14.70;94852.00;;;;7398163;19;20193;-75
2022/04/17 09:35:53;;;;;;;2.22;1.60;;;;;15.20;94839.00;;;;7396448;19;20148;-76
2022/04/17 09:38:27;;;;;;;2.03;1.63;;;;;15.80;94849.00;;;;7395798;19;20141;-76
2022/04/17 09:41:06;;;;;;;2.08;1.40;;;;;15.80;94851.00;;;;7398509;19;20144;-76
2022/04/17 09:43:35;;;;;;;2.45;1.77;;;;;16.30;94844.00;;;;7399507;19;20148;-77
2022/04/17 09:46:11;;;;;;;4.18;1.77;;;;;16.10;94844.00;;;;7395807;19;20169;-75
2022/04/17 09:48:41;;;;;;;2.38;1.80;;;;;16.40;94839.00;;;;7392738;19;20148;-74
2022/04/17 09:51:39;;;;;;;1.63;1.52;;;;;17.00;94833.00;;;;7393830;19;20132;-76
2022/04/17 09:54:17;;;;;;;2.22;2.03;;;;;17.20;94836.00;;;;7397024;19;20136;-75
2022/04/17 09:56:53;;;;;;;2.53;1.80;;;;;17.10;94841.00;;;;7397945;19;20519;-75
2022/04/17 09:59:27;;;;;;;2.05;1.70;;;;;16.90;94829.00;;;;7397864;19;20612;-76
2022/04/17 10:01:57;;;;;;;2.58;1.80;;;;;16.90;94835.00;;;;7394734;19;20125;-76
2022/04/17 10:04:28;;;;;;;2.13;1.77;;;;;17.30;94832.00;;;;7395296;19;20520;-75
2022/04/17 10:07:04;;;;;;;2.75;1.92;;;;;18.10;94831.00;;;;7395337;19;20155;-75
2022/04/17 10:09:36;;;;;;;4.55;1.80;;;;;17.60;94830.00;;;;7394502;19;20203;-75
2022/04/17 10:12:19;;;;;;;1.55;1.38;;;;;17.50;94827.00;;;;7383968;19;20140;-74
2022/04/17 10:14:54;;;;;;;1.92;1.55;;;;;16.90;94828.00;;;;7394340;19;20172;-75
2022/04/17 10:17:36;;;;;;;1.67;1.58;;;;;17.70;94820.00;;;;7393853;19;20143;-76
2022/04/17 10:20:08;;;;;;;2.08;1.58;;;;;17.40;94835.00;;;;7395840;19;20156;-76
2022/04/17 10:22:43;;;;;;;3.58;1.45;;;;;17.70;94829.00;;;;7397479;19;20155;-76
2022/04/17 10:25:12;;;;;;;1.77;1.40;;;;;16.90;94836.00;;;;7395610;19;20508;-76
2022/04/17 10:27:48;;;;;;;1.33;1.13;;;;;16.80;94831.00;;;;7398144;19;20134;-76
2022/04/17 10:30:49;;;;;;;3.10;1.42;;;;;16.70;94829.00;;;;7394669;19;20255;-75
2022/04/17 10:33:51;;;;;;;1.23;1.13;;;;;17.00;94822.00;;;;7396758;19;20160;-76
2022/04/17 10:36:46;;;;;;;1.77;1.27;;;;;16.70;94819.00;;;;7393771;19;20137;-74
2022/04/17 10:39:30;;;;;;;2.00;1.27;;;;;17.00;94804.00;;;;7393582;19;20136;-76
2022/04/17 10:42:10;;;;;;;1.95;1.35;;;;;16.90;94809.00;;;;7394001;19;20204;-76
2022/04/17 10:44:41;;;;;;;1.33;1.23;;;;;17.20;94820.00;;;;7395008;19;20185;-73
2022/04/17 10:47:20;;;;;;;1.50;1.40;;;;;17.50;94816.00;;;;7394141;19;20641;-75
2022/04/17 10:50:00;;;;;;;4.80;1.40;;;;;18.10;94807.00;;;;7402711;19;20159;-75
2022/04/17 10:52:36;;;;;;;1.77;1.50;;;;;18.80;94812.00;;;;7403368;19;20219;-76
2022/04/17 10:55:14;;;;;;;2.08;1.88;;;;;18.70;94804.00;;;;7402317;19;20219;-75
2022/04/17 10:57:50;;;;;;;4.57;2.42;;;;;17.30;94810.00;;;;7398653;19;20176;-75
2022/04/17 11:00:38;;;;;;;3.72;2.55;;;;;18.20;94803.00;;;;7393226;19;20155;-73
2022/04/17 11:03:26;;;;;;;2.08;1.80;;;;;17.80;94807.00;;;;7400599;19;20145;-76
2022/04/17 11:08:57;;;;;;;2.88;2.10;;;;;19.30;94798.00;;;;7401334;19;20753;-76
2022/04/17 11:11:47;;;;;;;3.45;1.98;;;;;18.60;94805.00;;;;7400811;19;20137;-76
2022/04/17 11:14:38;;;;;;;2.05;1.85;;;;;19.20;94794.00;;;;7398030;19;20164;-76
2022/04/17 11:17:14;;;;;;;3.15;1.98;;;;;19.30;94791.00;;;;7399758;19;20156;-76
2022/04/17 11:19:51;;;;;;;2.50;2.10;;;;;18.40;94794.00;;;;7399400;19;20224;-74
2022/04/17 11:22:24;;;;;;;4.15;2.70;;;;;17.90;94798.00;;;;7401517;19;20144;-76
2022/04/17 11:25:01;;;;;;;2.70;1.92;;;;;18.00;94803.00;;;;7398729;19;20512;-75
2022/04/17 11:27:32;;;;;;;2.88;1.95;;;;;18.20;94786.00;;;;7397463;19;20153;-76
2022/04/17 11:30:16;;;;;;;2.17;1.80;;;;;19.30;94799.00;;;;7400641;19;20156;-76
2022/04/17 11:32:46;;;;;;;2.35;1.90;;;;;19.00;94787.00;;;;7394104;19;20139;-75
2022/04/17 11:35:43;;;;;;;2.92;1.88;;;;;18.70;94790.00;;;;7396862;19;20160;-77
2022/04/17 11:38:26;;;;;;;2.35;1.80;;;;;18.80;94784.00;;;;7393985;19;20533;-78
2022/04/17 11:41:07;;;;;;;1.98;1.77;;;;;18.70;94784.00;;;;7395196;19;20745;-76
2022/04/17 11:43:35;;;;;;;2.08;1.55;;;;;18.70;94789.00;;;;7398805;19;20516;-78
2022/04/17 11:46:27;;;;;;;1.70;1.60;;;;;19.20;94778.00;;;;7395643;19;20167;-78
2022/04/17 11:48:59;;;;;;;9.18;2.00;;;;;19.40;94772.00;;;;7399671;19;20145;-78
2022/04/17 11:54:55;;;;;;;2.72;1.65;;;;;19.00;94759.00;;;;7398092;19;20148;-78
2022/04/17 11:57:33;;;;;;;2.08;1.35;;;;;20.10;94757.00;;;;7398413;19;20144;-76
2022/04/17 12:00:08;;;;;;;1.60;1.50;;;;;19.50;94747.00;;;;7396752;19;20146;-76
2022/04/17 12:02:46;;;;;;;1.48;1.38;;;;;19.30;94741.00;;;;7393313;19;20124;-77
2022/04/17 12:05:18;;;;;;;3.63;1.50;;;;;19.60;94745.00;;;;7398078;19;20132;-78
2022/04/17 12:08:06;;;;;;;1.52;1.40;;;;;20.20;94745.00;;;;7398468;19;20156;-78
2022/04/17 12:10:54;;;;;;;1.90;1.73;;;;;21.10;94756.00;;;;7396741;19;20551;-77
2022/04/17 12:13:46;;;;;;;3.25;1.58;;;;;20.30;94752.00;;;;7396893;19;20156;-79
2022/04/17 12:16:30;;;;;;;2.10;1.45;;;;;18.70;94752.00;;;;7399553;19;20141;-77
2022/04/17 12:19:06;;;;;;;2.35;1.52;;;;;19.00;94752.00;;;;7398529;19;20152;-77
2022/04/17 12:21:37;;;;;;;2.80;1.60;;;;;19.50;94742.00;;;;7403091;19;20188;-75